WJA323 CYYC-CYEG
Flight info
| Callsign | WJA323 |
|---|---|
| Flight time | 0h 31m |
| Altitude | 22000 |
| Route | BITGA Q995 OILRS OILRS2 |
| Aircraft | B738/M-SDE2E3FGHIRWXY/LB1 |
Departure
| Time | 2026-05-06 03:04 |
|---|---|
| Airport | Calgary International Airport (CYYC) |
Arrival
| Time | 2026-05-06 03:35 |
|---|---|
| Airport | Edmonton International Airport (CYEG) |
| Time | Latitude | Longitude | Altitude | Speed | Heading |
|---|---|---|---|---|---|
| 2026-05-06 02:34 | 51.12947 | -114.01334 | 3565 ft | 0 kts | 102° |
| 2026-05-06 02:50 | 51.12948 | -114.01334 | 3565 ft | 0 kts | 102° |
| 2026-05-06 02:51 | 51.12948 | -114.01335 | 3565 ft | 1 kts | 102° |
| 2026-05-06 02:52 | 51.12951 | -114.01357 | 3565 ft | 2 kts | 102° |
| 2026-05-06 02:52 | 51.12954 | -114.01382 | 3565 ft | 2 kts | 102° |
| 2026-05-06 02:52 | 51.12957 | -114.01405 | 3565 ft | 2 kts | 102° |
| 2026-05-06 02:52 | 51.12962 | -114.01427 | 3565 ft | 2 kts | 133° |
| 2026-05-06 02:53 | 51.12975 | -114.01440 | 3565 ft | 2 kts | 161° |
| 2026-05-06 02:53 | 51.12990 | -114.01444 | 3565 ft | 2 kts | 191° |
| 2026-05-06 02:53 | 51.13002 | -114.01435 | 3565 ft | 0 kts | 217° |
| 2026-05-06 02:53 | 51.13007 | -114.01429 | 3565 ft | 1 kts | 222° |
| 2026-05-06 02:54 | 51.13008 | -114.01427 | 3565 ft | 0 kts | 221° |
| 2026-05-06 02:56 | 51.12997 | -114.01442 | 3565 ft | 4 kts | 220° |
| 2026-05-06 02:56 | 51.12963 | -114.01475 | 3565 ft | 5 kts | 200° |
| 2026-05-06 02:57 | 51.12922 | -114.01489 | 3565 ft | 6 kts | 197° |
| 2026-05-06 02:57 | 51.12894 | -114.01559 | 3565 ft | 10 kts | 265° |
| 2026-05-06 02:57 | 51.12894 | -114.01698 | 3565 ft | 13 kts | 271° |
| 2026-05-06 02:57 | 51.12841 | -114.01795 | 3565 ft | 16 kts | 183° |
| 2026-05-06 02:58 | 51.12709 | -114.01796 | 3565 ft | 20 kts | 180° |
| 2026-05-06 02:58 | 51.12565 | -114.01795 | 3565 ft | 20 kts | 180° |
| 2026-05-06 02:58 | 51.12423 | -114.01795 | 3565 ft | 20 kts | 180° |
| 2026-05-06 02:58 | 51.12258 | -114.01795 | 3565 ft | 25 kts | 180° |
| 2026-05-06 02:59 | 51.12078 | -114.01796 | 3565 ft | 25 kts | 180° |
| 2026-05-06 02:59 | 51.11903 | -114.01795 | 3565 ft | 24 kts | 180° |
| 2026-05-06 02:59 | 51.11731 | -114.01794 | 3565 ft | 24 kts | 180° |
| 2026-05-06 02:59 | 51.11561 | -114.01795 | 3565 ft | 24 kts | 180° |
| 2026-05-06 03:00 | 51.11389 | -114.01795 | 3565 ft | 24 kts | 179° |
| 2026-05-06 03:00 | 51.11217 | -114.01796 | 3565 ft | 24 kts | 180° |
| 2026-05-06 03:00 | 51.11046 | -114.01797 | 3565 ft | 24 kts | 180° |
| 2026-05-06 03:00 | 51.10875 | -114.01796 | 3565 ft | 24 kts | 180° |
| 2026-05-06 03:01 | 51.10703 | -114.01796 | 3565 ft | 24 kts | 180° |
| 2026-05-06 03:01 | 51.10530 | -114.01795 | 3565 ft | 24 kts | 180° |
| 2026-05-06 03:01 | 51.10357 | -114.01795 | 3565 ft | 24 kts | 180° |
| 2026-05-06 03:01 | 51.10184 | -114.01795 | 3565 ft | 24 kts | 180° |
| 2026-05-06 03:02 | 51.10010 | -114.01796 | 3565 ft | 24 kts | 180° |
| 2026-05-06 03:02 | 51.09839 | -114.01796 | 3565 ft | 24 kts | 180° |
| 2026-05-06 03:02 | 51.09710 | -114.01838 | 3565 ft | 12 kts | 234° |
| 2026-05-06 03:02 | 51.09693 | -114.01965 | 3565 ft | 11 kts | 269° |
| 2026-05-06 03:03 | 51.09696 | -114.02097 | 3565 ft | 11 kts | 284° |
| 2026-05-06 03:03 | 51.09769 | -114.02138 | 3565 ft | 14 kts | 1° |
| 2026-05-06 03:03 | 51.10032 | -114.02136 | 3565 ft | 77 kts | 0° |
| 2026-05-06 03:03 | 51.10834 | -114.02135 | 3565 ft | 152 kts | 0° |
| 2026-05-06 03:04 | 51.12022 | -114.02142 | 4099 ft | 175 kts | 2° |
| 2026-05-06 03:04 | 51.13165 | -114.02174 | 5149 ft | 170 kts | 0° |
| 2026-05-06 03:04 | 51.14372 | -114.02212 | 5702 ft | 177 kts | 1° |
| 2026-05-06 03:04 | 51.15618 | -114.02226 | 6177 ft | 187 kts | 1° |
| 2026-05-06 03:05 | 51.16993 | -114.02235 | 6560 ft | 204 kts | 360° |
| 2026-05-06 03:05 | 51.18457 | -114.02311 | 6971 ft | 222 kts | 357° |
| 2026-05-06 03:05 | 51.20036 | -114.02428 | 7541 ft | 233 kts | 356° |
| 2026-05-06 03:05 | 51.21666 | -114.02557 | 8130 ft | 245 kts | 355° |
| 2026-05-06 03:06 | 51.23404 | -114.02676 | 8768 ft | 257 kts | 355° |
| 2026-05-06 03:06 | 51.25245 | -114.02746 | 9398 ft | 270 kts | 359° |
| 2026-05-06 03:06 | 51.27074 | -114.02473 | 10355 ft | 271 kts | 5° |
| 2026-05-06 03:06 | 51.28971 | -114.01977 | 11047 ft | 281 kts | 6° |
| 2026-05-06 03:07 | 51.30934 | -114.01454 | 11715 ft | 292 kts | 6° |
| 2026-05-06 03:07 | 51.32971 | -114.00957 | 12597 ft | 296 kts | 5° |
| 2026-05-06 03:07 | 51.34966 | -114.00500 | 13687 ft | 292 kts | 5° |
| 2026-05-06 03:07 | 51.36964 | -114.00056 | 14547 ft | 296 kts | 5° |
| 2026-05-06 03:08 | 51.39018 | -113.99606 | 15448 ft | 299 kts | 6° |
| 2026-05-06 03:08 | 51.41070 | -113.99157 | 16352 ft | 301 kts | 6° |
| 2026-05-06 03:08 | 51.43142 | -113.98700 | 17187 ft | 304 kts | 6° |
| 2026-05-06 03:08 | 51.45206 | -113.98245 | 18031 ft | 306 kts | 6° |
| 2026-05-06 03:09 | 51.47306 | -113.97782 | 18863 ft | 308 kts | 6° |
| 2026-05-06 03:09 | 51.49422 | -113.97306 | 19580 ft | 312 kts | 7° |
| 2026-05-06 03:09 | 51.51562 | -113.96678 | 20349 ft | 315 kts | 9° |
| 2026-05-06 03:09 | 51.53681 | -113.95931 | 21275 ft | 312 kts | 10° |
| 2026-05-06 03:10 | 51.55795 | -113.95155 | 21902 ft | 313 kts | 10° |
| 2026-05-06 03:10 | 51.57940 | -113.94376 | 22050 ft | 311 kts | 10° |
| 2026-05-06 03:10 | 51.60027 | -113.93628 | 22065 ft | 307 kts | 10° |
| 2026-05-06 03:10 | 51.62117 | -113.92886 | 22069 ft | 306 kts | 9° |
| 2026-05-06 03:11 | 51.64175 | -113.92110 | 22066 ft | 307 kts | 11° |
| 2026-05-06 03:11 | 51.66240 | -113.91280 | 22067 ft | 306 kts | 11° |
| 2026-05-06 03:11 | 51.68310 | -113.90434 | 22069 ft | 307 kts | 11° |
| 2026-05-06 03:11 | 51.70391 | -113.89587 | 22069 ft | 308 kts | 11° |
| 2026-05-06 03:12 | 51.72437 | -113.88760 | 22065 ft | 307 kts | 11° |
| 2026-05-06 03:12 | 51.74530 | -113.87918 | 22068 ft | 309 kts | 11° |
| 2026-05-06 03:12 | 51.76589 | -113.87091 | 22068 ft | 307 kts | 11° |
| 2026-05-06 03:12 | 51.78668 | -113.86253 | 22069 ft | 306 kts | 11° |
| 2026-05-06 03:13 | 51.80736 | -113.85422 | 22071 ft | 306 kts | 11° |
| 2026-05-06 03:13 | 51.82800 | -113.84592 | 22074 ft | 307 kts | 11° |
| 2026-05-06 03:13 | 51.84860 | -113.83761 | 22067 ft | 308 kts | 11° |
| 2026-05-06 03:13 | 51.86926 | -113.82928 | 22066 ft | 307 kts | 11° |
| 2026-05-06 03:14 | 51.88997 | -113.82092 | 22063 ft | 308 kts | 11° |
| 2026-05-06 03:14 | 51.91074 | -113.81254 | 22064 ft | 307 kts | 11° |
| 2026-05-06 03:14 | 51.93146 | -113.80417 | 22062 ft | 307 kts | 11° |
| 2026-05-06 03:14 | 51.95216 | -113.79579 | 22063 ft | 307 kts | 11° |
| 2026-05-06 03:15 | 51.97301 | -113.78732 | 22066 ft | 306 kts | 11° |
| 2026-05-06 03:15 | 51.99350 | -113.77902 | 22064 ft | 307 kts | 11° |
| 2026-05-06 03:15 | 52.01427 | -113.77060 | 22065 ft | 307 kts | 11° |
| 2026-05-06 03:15 | 52.03510 | -113.76215 | 22071 ft | 307 kts | 11° |
| 2026-05-06 03:16 | 52.05562 | -113.75382 | 22074 ft | 308 kts | 11° |
| 2026-05-06 03:16 | 52.07635 | -113.74537 | 22074 ft | 307 kts | 11° |
| 2026-05-06 03:16 | 52.09715 | -113.73689 | 22077 ft | 308 kts | 11° |
| 2026-05-06 03:16 | 52.11816 | -113.72833 | 22076 ft | 309 kts | 11° |
| 2026-05-06 03:17 | 52.13913 | -113.71978 | 22079 ft | 308 kts | 11° |
| 2026-05-06 03:17 | 52.16002 | -113.71125 | 22078 ft | 309 kts | 11° |
| 2026-05-06 03:17 | 52.18070 | -113.70279 | 22084 ft | 308 kts | 11° |
| 2026-05-06 03:17 | 52.20170 | -113.69418 | 22089 ft | 308 kts | 11° |
| 2026-05-06 03:18 | 52.22240 | -113.68570 | 22090 ft | 306 kts | 11° |
| 2026-05-06 03:18 | 52.24310 | -113.67722 | 22082 ft | 307 kts | 11° |
| 2026-05-06 03:18 | 52.26397 | -113.66866 | 22081 ft | 308 kts | 11° |
| 2026-05-06 03:18 | 52.28450 | -113.66023 | 22078 ft | 308 kts | 11° |
| 2026-05-06 03:19 | 52.30518 | -113.65170 | 22059 ft | 296 kts | 11° |
| 2026-05-06 03:19 | 52.32461 | -113.64365 | 21870 ft | 287 kts | 11° |
| 2026-05-06 03:19 | 52.34415 | -113.63561 | 21520 ft | 295 kts | 11° |
| 2026-05-06 03:19 | 52.36420 | -113.62739 | 21073 ft | 297 kts | 11° |
| 2026-05-06 03:20 | 52.40390 | -113.61099 | 20202 ft | 292 kts | 11° |
| 2026-05-06 03:20 | 52.42323 | -113.60299 | 19780 ft | 289 kts | 11° |
| 2026-05-06 03:20 | 52.44276 | -113.59490 | 19349 ft | 286 kts | 11° |
| 2026-05-06 03:21 | 52.46182 | -113.58700 | 18929 ft | 283 kts | 11° |
| 2026-05-06 03:21 | 52.48096 | -113.57906 | 18522 ft | 280 kts | 11° |
| 2026-05-06 03:21 | 52.49968 | -113.57130 | 18309 ft | 281 kts | 11° |
| 2026-05-06 03:21 | 52.51893 | -113.56333 | 18063 ft | 286 kts | 11° |
| 2026-05-06 03:22 | 52.53804 | -113.55538 | 17821 ft | 285 kts | 11° |
| 2026-05-06 03:22 | 52.55730 | -113.54734 | 17576 ft | 284 kts | 11° |
| 2026-05-06 03:22 | 52.57623 | -113.53945 | 17333 ft | 282 kts | 11° |
| 2026-05-06 03:22 | 52.59528 | -113.53151 | 17087 ft | 283 kts | 11° |
| 2026-05-06 03:23 | 52.61438 | -113.52429 | 16843 ft | 281 kts | 8° |
| 2026-05-06 03:23 | 52.63360 | -113.52044 | 16598 ft | 279 kts | 1° |
| 2026-05-06 03:23 | 52.65310 | -113.52060 | 16351 ft | 278 kts | 356° |
| 2026-05-06 03:23 | 52.67250 | -113.52251 | 16105 ft | 277 kts | 355° |
| 2026-05-06 03:24 | 52.69143 | -113.52462 | 15864 ft | 276 kts | 355° |
| 2026-05-06 03:24 | 52.71068 | -113.52653 | 15613 ft | 274 kts | 356° |
| 2026-05-06 03:24 | 52.72965 | -113.52819 | 15365 ft | 276 kts | 356° |
| 2026-05-06 03:24 | 52.74904 | -113.52980 | 15117 ft | 275 kts | 356° |
| 2026-05-06 03:25 | 52.76803 | -113.53136 | 14875 ft | 274 kts | 356° |
| 2026-05-06 03:25 | 52.78692 | -113.53291 | 14630 ft | 272 kts | 356° |
| 2026-05-06 03:25 | 52.80588 | -113.53448 | 14381 ft | 273 kts | 356° |
| 2026-05-06 03:25 | 52.82471 | -113.53604 | 14136 ft | 271 kts | 356° |
| 2026-05-06 03:26 | 52.84349 | -113.53760 | 13885 ft | 270 kts | 356° |
| 2026-05-06 03:26 | 52.86233 | -113.53917 | 13652 ft | 267 kts | 356° |
| 2026-05-06 03:26 | 52.88074 | -113.54071 | 13239 ft | 263 kts | 356° |
| 2026-05-06 03:26 | 52.89883 | -113.54221 | 13024 ft | 253 kts | 356° |
| 2026-05-06 03:27 | 52.91618 | -113.54366 | 12609 ft | 252 kts | 356° |
| 2026-05-06 03:27 | 52.93378 | -113.54514 | 12129 ft | 253 kts | 356° |
| 2026-05-06 03:27 | 52.95139 | -113.54662 | 11685 ft | 253 kts | 356° |
| 2026-05-06 03:27 | 52.95844 | -113.54721 | 11498 ft | 253 kts | 356° |
| 2026-05-06 03:28 | 52.97516 | -113.54862 | 11048 ft | 252 kts | 355° |
| 2026-05-06 03:28 | 52.99248 | -113.55006 | 10484 ft | 253 kts | 355° |
| 2026-05-06 03:28 | 53.01021 | -113.55155 | 9909 ft | 254 kts | 355° |
| 2026-05-06 03:28 | 53.02753 | -113.55291 | 9678 ft | 240 kts | 357° |
| 2026-05-06 03:29 | 53.04356 | -113.55074 | 9397 ft | 232 kts | 12° |
| 2026-05-06 03:29 | 53.05777 | -113.53801 | 8853 ft | 240 kts | 38° |
| 2026-05-06 03:29 | 53.06936 | -113.51823 | 8392 ft | 240 kts | 44° |
| 2026-05-06 03:29 | 53.08084 | -113.49784 | 7936 ft | 238 kts | 43° |
| 2026-05-06 03:30 | 53.09218 | -113.47851 | 7624 ft | 236 kts | 43° |
| 2026-05-06 03:30 | 53.10382 | -113.45911 | 7456 ft | 239 kts | 43° |
| 2026-05-06 03:30 | 53.11565 | -113.43947 | 7049 ft | 243 kts | 43° |
| 2026-05-06 03:30 | 53.12783 | -113.41923 | 6484 ft | 248 kts | 44° |
| 2026-05-06 03:31 | 53.14000 | -113.39941 | 6057 ft | 243 kts | 41° |
| 2026-05-06 03:31 | 53.15369 | -113.38433 | 5809 ft | 233 kts | 20° |
| 2026-05-06 03:31 | 53.16945 | -113.38188 | 5612 ft | 227 kts | 351° |
| 2026-05-06 03:31 | 53.18404 | -113.39228 | 5260 ft | 228 kts | 323° |
| 2026-05-06 03:32 | 53.19535 | -113.41041 | 4943 ft | 225 kts | 311° |
| 2026-05-06 03:32 | 53.20566 | -113.42939 | 4633 ft | 220 kts | 314° |
| 2026-05-06 03:32 | 53.21665 | -113.44694 | 4318 ft | 216 kts | 317° |
| 2026-05-06 03:32 | 53.22720 | -113.46394 | 4032 ft | 203 kts | 315° |
| 2026-05-06 03:33 | 53.23666 | -113.48017 | 3751 ft | 189 kts | 314° |
| 2026-05-06 03:33 | 53.24575 | -113.49507 | 3506 ft | 175 kts | 316° |
| 2026-05-06 03:33 | 53.25408 | -113.50873 | 3277 ft | 159 kts | 314° |
| 2026-05-06 03:33 | 53.26143 | -113.52132 | 3048 ft | 147 kts | 315° |
| 2026-05-06 03:34 | 53.26864 | -113.53284 | 2876 ft | 142 kts | 315° |
| 2026-05-06 03:34 | 53.27555 | -113.54459 | 2691 ft | 142 kts | 314° |
| 2026-05-06 03:34 | 53.28258 | -113.55621 | 2490 ft | 141 kts | 316° |
| 2026-05-06 03:34 | 53.28941 | -113.56745 | 2335 ft | 134 kts | 315° |
| 2026-05-06 03:35 | 53.29460 | -113.57614 | 2333 ft | 71 kts | 314° |
| 2026-05-06 03:35 | 53.29700 | -113.58017 | 2333 ft | 38 kts | 314° |
| 2026-05-06 03:35 | 53.29847 | -113.58201 | 2333 ft | 15 kts | 354° |
| 2026-05-06 03:35 | 53.29952 | -113.58204 | 2333 ft | 15 kts | 1° |
| 2026-05-06 03:36 | 53.30059 | -113.58202 | 2333 ft | 15 kts | 360° |
| 2026-05-06 03:36 | 53.30144 | -113.58282 | 2333 ft | 14 kts | 314° |
| 2026-05-06 03:36 | 53.30215 | -113.58400 | 2333 ft | 13 kts | 320° |
| 2026-05-06 03:36 | 53.30278 | -113.58365 | 2333 ft | 10 kts | 45° |
| 2026-05-06 03:37 | 53.30327 | -113.58286 | 2333 ft | 9 kts | 27° |
| 2026-05-06 03:37 | 53.30384 | -113.58257 | 2333 ft | 8 kts | 44° |
| 2026-05-06 03:37 | 53.30423 | -113.58228 | 2333 ft | 5 kts | 18° |
| 2026-05-06 03:37 | 53.30442 | -113.58202 | 2333 ft | 0 kts | 43° |